createdAt,value
2016-12-11T00:00:27.511Z,925.71
2016-12-11T00:00:55.390Z,925.7
2016-12-11T00:01:23.244Z,925.72
2016-12-11T00:01:51.080Z,925.71
2016-12-11T00:02:18.887Z,925.69
2016-12-11T00:02:46.973Z,925.71
2016-12-11T00:03:14.820Z,925.68
2016-12-11T00:03:42.634Z,925.67
2016-12-11T00:04:10.487Z,925.7
2016-12-11T00:04:38.323Z,925.67
2016-12-11T00:05:06.250Z,925.64
2016-12-11T00:05:34.086Z,925.65
2016-12-11T00:06:02.121Z,925.64
2016-12-11T00:06:30.029Z,925.66
2016-12-11T00:06:57.874Z,925.67
2016-12-11T00:07:25.705Z,925.66
2016-12-11T00:07:53.589Z,925.68
2016-12-11T00:08:21.387Z,925.7
2016-12-11T00:08:49.233Z,925.74
2016-12-11T00:09:17.148Z,925.72
2016-12-11T00:09:45.011Z,925.76
2016-12-11T00:10:12.855Z,925.78
2016-12-11T00:10:40.718Z,925.8
2016-12-11T00:11:08.529Z,925.82
2016-12-11T00:11:36.350Z,925.84
2016-12-11T00:12:04.246Z,925.88
2016-12-11T00:12:32.138Z,925.87
2016-12-11T00:12:59.990Z,925.88
2016-12-11T00:13:27.813Z,925.88
2016-12-11T00:13:55.693Z,925.91
2016-12-11T00:14:23.680Z,925.91
2016-12-11T00:14:51.569Z,925.88
2016-12-11T00:15:19.430Z,925.89
2016-12-11T00:15:47.295Z,925.92
2016-12-11T00:16:15.121Z,925.92
2016-12-11T00:16:42.955Z,925.92
2016-12-11T00:17:10.831Z,925.95
2016-12-11T00:17:38.709Z,925.98
2016-12-11T00:18:06.672Z,925.99
2016-12-11T00:18:34.521Z,925.98
2016-12-11T00:19:02.355Z,926.04
2016-12-11T00:19:30.363Z,926.01
2016-12-11T00:19:58.238Z,926.02
2016-12-11T00:20:26.204Z,926.01
2016-12-11T00:20:54.146Z,926.04
2016-12-11T00:21:22.007Z,926.08
2016-12-11T00:21:49.918Z,926.05
2016-12-11T00:22:17.770Z,926.06
2016-12-11T00:22:45.638Z,926.05
2016-12-11T00:23:13.523Z,926.06
2016-12-11T00:23:41.354Z,926.03
2016-12-11T00:24:09.247Z,926.05
2016-12-11T00:24:37.179Z,926.08
2016-12-11T00:25:05.100Z,926.04
2016-12-11T00:25:32.918Z,926.05
2016-12-11T00:26:00.750Z,926.05
2016-12-11T00:26:28.611Z,926.05
2016-12-11T00:26:56.497Z,926.07
2016-12-11T00:27:24.386Z,926.07
2016-12-11T00:27:52.215Z,926.07
2016-12-11T00:28:20.072Z,926.07
2016-12-11T00:28:47.914Z,926.11
2016-12-11T00:29:15.853Z,926.11
2016-12-11T00:29:43.697Z,926.12
2016-12-11T00:30:11.558Z,926.08
2016-12-11T00:30:39.425Z,926.18
2016-12-11T00:31:07.266Z,926.12
2016-12-11T00:31:35.108Z,926.13
2016-12-11T00:32:02.913Z,926.1
2016-12-11T00:32:30.758Z,926.09
2016-12-11T00:32:58.554Z,926.12
2016-12-11T00:33:26.382Z,926.09
2016-12-11T00:33:54.251Z,926.09
2016-12-11T00:34:22.145Z,926.05
2016-12-11T00:34:49.992Z,926.01
2016-12-11T00:35:17.828Z,926.02
2016-12-11T00:35:45.658Z,925.99
2016-12-11T00:36:13.500Z,926.04
2016-12-11T00:36:41.326Z,926
2016-12-11T00:37:09.187Z,926.04
2016-12-11T00:37:37.103Z,926.02
2016-12-11T00:38:04.945Z,926
2016-12-11T00:38:32.867Z,926.03
2016-12-11T00:39:00.745Z,926.04
2016-12-11T00:39:28.642Z,926.04
2016-12-11T00:39:56.597Z,926.08
2016-12-11T00:40:24.445Z,926.09
2016-12-11T00:40:52.296Z,926.1
2016-12-11T00:41:20.149Z,926.1
2016-12-11T00:41:47.980Z,926.07
2016-12-11T00:42:15.923Z,926.05
2016-12-11T00:42:43.784Z,926.07
2016-12-11T00:43:11.644Z,926.12
2016-12-11T00:43:39.515Z,926.1
2016-12-11T00:44:07.357Z,926.15
2016-12-11T00:44:35.216Z,926.13
2016-12-11T00:45:03.057Z,926.1
2016-12-11T00:45:30.940Z,926.08
2016-12-11T00:45:58.791Z,926.1
2016-12-11T00:46:26.606Z,926.08
2016-12-11T00:46:54.473Z,926.09
2016-12-11T00:47:22.296Z,926.09
2016-12-11T00:47:50.065Z,926.1
2016-12-11T00:48:17.902Z,926.04
2016-12-11T00:48:45.705Z,926.04
2016-12-11T00:49:13.589Z,925.99
2016-12-11T00:49:41.453Z,925.99
2016-12-11T00:50:09.402Z,926.01
2016-12-11T00:50:37.213Z,925.99
2016-12-11T00:51:05.027Z,926.07
2016-12-11T00:51:32.867Z,926.01
2016-12-11T00:52:00.736Z,926.03
2016-12-11T00:52:28.600Z,926.02
2016-12-11T00:52:56.430Z,926.03
2016-12-11T00:53:24.257Z,926.02
2016-12-11T00:53:52.215Z,926.04
2016-12-11T00:54:20.059Z,926.06
2016-12-11T00:54:47.887Z,926.02
2016-12-11T00:55:15.803Z,926
2016-12-11T00:55:43.657Z,926.05
2016-12-11T00:56:11.474Z,926.01
2016-12-11T00:56:39.337Z,926.01
2016-12-11T00:57:07.179Z,925.99
2016-12-11T00:57:35.060Z,925.99
2016-12-11T00:58:02.921Z,925.98
2016-12-11T00:58:30.875Z,925.97
2016-12-11T00:58:58.761Z,925.99
2016-12-11T00:59:26.675Z,925.95
2016-12-11T00:59:54.467Z,925.93
2016-12-11T01:00:22.326Z,925.94
2016-12-11T01:00:50.199Z,925.93
2016-12-11T01:01:18.159Z,925.93
2016-12-11T01:01:45.979Z,925.95
2016-12-11T01:02:13.901Z,925.93
2016-12-11T01:02:41.743Z,926.01
2016-12-11T01:03:09.546Z,925.96
2016-12-11T01:03:37.409Z,926.01
2016-12-11T01:04:05.302Z,926
2016-12-11T01:04:33.138Z,926.01
2016-12-11T01:05:00.993Z,926.04
2016-12-11T01:05:28.858Z,925.99
2016-12-11T01:05:56.727Z,926.01
2016-12-11T01:06:24.566Z,925.98
2016-12-11T01:06:52.529Z,925.98
2016-12-11T01:07:20.344Z,925.93
2016-12-11T01:07:48.198Z,925.96
2016-12-11T01:08:16.043Z,925.96
2016-12-11T01:08:43.893Z,925.97
2016-12-11T01:09:11.715Z,925.95
2016-12-11T01:09:39.554Z,925.92
2016-12-11T01:10:07.456Z,925.9
2016-12-11T01:10:35.328Z,925.87
2016-12-11T01:11:03.148Z,925.86
2016-12-11T01:11:30.989Z,925.85
2016-12-11T01:11:58.763Z,925.86
2016-12-11T01:12:26.590Z,925.87
2016-12-11T01:12:54.416Z,925.9
2016-12-11T01:13:22.251Z,925.86
2016-12-11T01:13:50.271Z,925.89
2016-12-11T01:14:18.107Z,925.89
2016-12-11T01:14:46.043Z,925.85
2016-12-11T01:15:13.914Z,925.87
2016-12-11T01:15:41.778Z,925.88
2016-12-11T01:16:09.616Z,925.89
2016-12-11T01:16:37.449Z,925.86
2016-12-11T01:17:05.364Z,925.91
2016-12-11T01:17:33.193Z,925.93
2016-12-11T01:18:01.056Z,925.98
2016-12-11T01:18:29.052Z,925.98
2016-12-11T01:18:56.905Z,925.96
2016-12-11T01:19:24.806Z,925.97
2016-12-11T01:19:52.615Z,925.96
2016-12-11T01:20:20.459Z,925.98
2016-12-11T01:20:48.307Z,925.96
2016-12-11T01:21:16.200Z,925.93
2016-12-11T01:21:44.112Z,925.97
2016-12-11T01:22:11.972Z,925.92
2016-12-11T01:22:39.804Z,925.92
2016-12-11T01:23:07.663Z,925.95
2016-12-11T01:23:35.513Z,925.9
2016-12-11T01:24:03.369Z,925.93
2016-12-11T01:24:31.201Z,925.89
2016-12-11T01:24:59.083Z,925.89
2016-12-11T01:25:26.916Z,925.89
2016-12-11T01:25:54.773Z,925.9
2016-12-11T01:26:22.587Z,925.89
2016-12-11T01:26:50.439Z,925.9
2016-12-11T01:27:18.276Z,925.92
2016-12-11T01:27:46.131Z,925.9
2016-12-11T01:28:13.965Z,925.92
2016-12-11T01:28:41.823Z,925.96
2016-12-11T01:29:09.797Z,925.93
2016-12-11T01:29:37.747Z,925.92
2016-12-11T01:30:05.558Z,925.93
2016-12-11T01:30:33.413Z,925.94
2016-12-11T01:31:01.345Z,925.97
2016-12-11T01:31:29.225Z,925.96
2016-12-11T01:31:57.061Z,925.94
2016-12-11T01:32:24.941Z,925.95
2016-12-11T01:32:52.748Z,925.96
2016-12-11T01:33:20.601Z,925.93
2016-12-11T01:33:48.566Z,925.92
2016-12-11T01:34:16.414Z,925.88
2016-12-11T01:34:44.287Z,925.93
2016-12-11T01:35:12.171Z,925.96
2016-12-11T01:35:39.917Z,925.93
2016-12-11T01:36:07.847Z,925.97
2016-12-11T01:36:35.766Z,925.99
2016-12-11T01:37:03.581Z,925.99
2016-12-11T01:37:31.451Z,925.93
2016-12-11T01:37:59.320Z,925.95
2016-12-11T01:38:27.157Z,925.95
2016-12-11T01:38:55.011Z,925.98
2016-12-11T01:39:22.877Z,926.01
2016-12-11T01:39:50.720Z,926.01
2016-12-11T01:40:18.547Z,925.97
2016-12-11T01:40:46.463Z,926.01
2016-12-11T01:41:14.324Z,925.98
2016-12-11T01:41:42.184Z,926.03
2016-12-11T01:42:10.016Z,926.01
2016-12-11T01:42:37.822Z,926
2016-12-11T01:43:05.662Z,925.93
2016-12-11T01:43:33.533Z,925.97
2016-12-11T01:44:01.386Z,925.97
2016-12-11T01:44:29.227Z,925.95
2016-12-11T01:44:57.070Z,925.96
2016-12-11T01:45:24.931Z,925.98
2016-12-11T01:45:52.847Z,925.98
2016-12-11T01:46:20.758Z,925.98
2016-12-11T01:46:48.641Z,925.95
2016-12-11T01:47:16.451Z,925.99
2016-12-11T01:47:44.330Z,925.93
2016-12-11T01:48:12.216Z,925.94
2016-12-11T01:48:40.069Z,925.95
2016-12-11T01:49:07.894Z,925.92
2016-12-11T01:49:35.732Z,925.96
2016-12-11T01:50:03.577Z,925.94
2016-12-11T01:50:31.392Z,925.94
2016-12-11T01:50:59.257Z,925.95
2016-12-11T01:51:27.037Z,925.97
2016-12-11T01:51:54.881Z,925.96
2016-12-11T01:52:22.720Z,925.95
2016-12-11T01:52:50.563Z,925.96
2016-12-11T01:53:18.413Z,925.93
2016-12-11T01:53:46.301Z,925.94
2016-12-11T01:54:14.153Z,925.93
2016-12-11T01:54:42.017Z,925.93
2016-12-11T01:55:09.861Z,925.92
2016-12-11T01:55:37.714Z,925.93
2016-12-11T01:56:05.599Z,925.91
2016-12-11T01:56:33.515Z,925.92
2016-12-11T01:57:01.355Z,925.9
2016-12-11T01:57:29.171Z,925.87
2016-12-11T01:57:57.096Z,925.84
2016-12-11T01:58:24.986Z,925.85
2016-12-11T01:58:52.841Z,925.85
2016-12-11T01:59:20.694Z,925.86
2016-12-11T01:59:48.537Z,925.83
2016-12-11T02:00:16.400Z,925.85
2016-12-11T02:00:44.227Z,925.82
2016-12-11T02:01:12.112Z,925.84
2016-12-11T02:01:39.947Z,925.85
2016-12-11T02:02:07.771Z,925.84
2016-12-11T02:02:35.609Z,925.86
2016-12-11T02:03:03.410Z,925.87
2016-12-11T02:03:31.217Z,925.82
2016-12-11T02:03:59.127Z,925.84
2016-12-11T02:04:27.084Z,925.8
2016-12-11T02:04:54.927Z,925.82
2016-12-11T02:05:22.756Z,925.83
2016-12-11T02:05:50.626Z,925.8
2016-12-11T02:06:18.471Z,925.76
2016-12-11T02:06:46.313Z,925.77
2016-12-11T02:07:14.151Z,925.8
2016-12-11T02:07:42.026Z,925.74
2016-12-11T02:08:09.855Z,925.78
2016-12-11T02:08:37.712Z,925.76
2016-12-11T02:09:05.732Z,925.76
2016-12-11T02:09:33.631Z,925.79
2016-12-11T02:10:01.460Z,925.74
2016-12-11T02:10:29.266Z,925.72
2016-12-11T02:10:57.083Z,925.7
2016-12-11T02:11:24.883Z,925.73
2016-12-11T02:11:52.720Z,925.69
2016-12-11T02:12:20.705Z,925.7
2016-12-11T02:12:48.535Z,925.68
2016-12-11T02:13:16.556Z,925.65
2016-12-11T02:13:44.380Z,925.68
2016-12-11T02:14:12.335Z,925.65
2016-12-11T02:14:40.179Z,925.65
2016-12-11T02:15:08.016Z,925.62
2016-12-11T02:15:35.892Z,925.59
2016-12-11T02:16:03.744Z,925.62
2016-12-11T02:16:31.643Z,925.62
2016-12-11T02:16:59.491Z,925.58
2016-12-11T02:17:27.334Z,925.59
2016-12-11T02:17:55.159Z,925.6
2016-12-11T02:18:22.977Z,925.61
2016-12-11T02:18:50.803Z,925.57
2016-12-11T02:19:18.657Z,925.59
2016-12-11T02:19:46.446Z,925.54
2016-12-11T02:20:14.289Z,925.56
2016-12-11T02:20:42.219Z,925.56
2016-12-11T02:21:10.076Z,925.56
2016-12-11T02:21:37.920Z,925.59
2016-12-11T02:22:05.736Z,925.56
2016-12-11T02:22:33.639Z,925.61
2016-12-11T02:23:01.470Z,925.58
2016-12-11T02:23:29.357Z,925.6
2016-12-11T02:23:57.300Z,925.58
2016-12-11T02:24:25.155Z,925.61
2016-12-11T02:24:53.019Z,925.59
2016-12-11T02:25:20.975Z,925.57
2016-12-11T02:25:48.820Z,925.58
2016-12-11T02:26:16.653Z,925.59
2016-12-11T02:26:44.542Z,925.55
2016-12-11T02:27:12.364Z,925.55
2016-12-11T02:27:40.209Z,925.54
2016-12-11T02:28:08.024Z,925.54
2016-12-11T02:28:36.053Z,925.52
2016-12-11T02:29:03.868Z,925.46
2016-12-11T02:29:31.718Z,925.49
2016-12-11T02:29:59.540Z,925.44
2016-12-11T02:30:27.530Z,925.45
2016-12-11T02:30:55.419Z,925.41
2016-12-11T02:31:23.268Z,925.45
2016-12-11T02:31:51.092Z,925.45
2016-12-11T02:32:18.940Z,925.44
2016-12-11T02:32:46.751Z,925.46
2016-12-11T02:33:14.566Z,925.45
2016-12-11T02:33:42.381Z,925.41
2016-12-11T02:34:10.223Z,925.43
2016-12-11T02:34:38.039Z,925.41
2016-12-11T02:35:06.000Z,925.39
2016-12-11T02:35:33.889Z,925.37
2016-12-11T02:36:01.849Z,925.38
2016-12-11T02:36:29.693Z,925.34
2016-12-11T02:36:57.559Z,925.35
2016-12-11T02:37:25.411Z,925.37
2016-12-11T02:37:53.271Z,925.32
2016-12-11T02:38:21.147Z,925.37
2016-12-11T02:38:49.062Z,925.35
2016-12-11T02:39:16.875Z,925.31
2016-12-11T02:39:44.691Z,925.35
2016-12-11T02:40:12.526Z,925.32
2016-12-11T02:40:40.328Z,925.35
2016-12-11T02:41:08.188Z,925.3
2016-12-11T02:41:35.997Z,925.29
2016-12-11T02:42:03.823Z,925.31
2016-12-11T02:42:31.689Z,925.29
2016-12-11T02:42:59.543Z,925.25
2016-12-11T02:43:27.412Z,925.25
2016-12-11T02:43:55.254Z,925.27
2016-12-11T02:44:23.043Z,925.27
2016-12-11T02:44:50.899Z,925.24
2016-12-11T02:45:18.741Z,925.2
2016-12-11T02:45:46.597Z,925.22
2016-12-11T02:46:14.470Z,925.19
2016-12-11T02:46:42.425Z,925.18
2016-12-11T02:47:10.302Z,925.2
2016-12-11T02:47:38.189Z,925.18
2016-12-11T02:48:06.150Z,925.21
2016-12-11T02:48:33.989Z,925.23
2016-12-11T02:49:01.966Z,925.2
2016-12-11T02:49:29.827Z,925.23
2016-12-11T02:49:57.646Z,925.24
2016-12-11T02:50:25.542Z,925.21
2016-12-11T02:50:53.404Z,925.28
2016-12-11T02:51:21.289Z,925.23
2016-12-11T02:51:49.151Z,925.22
2016-12-11T02:52:16.992Z,925.25
2016-12-11T02:52:44.803Z,925.22
2016-12-11T02:53:12.610Z,925.17
2016-12-11T02:53:40.441Z,925.19
2016-12-11T02:54:08.303Z,925.14
2016-12-11T02:54:36.133Z,925.16
2016-12-11T02:55:03.963Z,925.13
2016-12-11T02:55:31.844Z,925.12
2016-12-11T02:55:59.718Z,925.11
2016-12-11T02:56:27.589Z,925.12
2016-12-11T02:56:55.644Z,925.11
2016-12-11T02:57:23.499Z,925.06
2016-12-11T02:57:51.416Z,925.08
2016-12-11T02:58:19.254Z,925.05
2016-12-11T02:58:47.154Z,925.05
2016-12-11T02:59:15.000Z,925.06
2016-12-11T02:59:42.808Z,924.99
2016-12-11T03:00:10.681Z,925.03
2016-12-11T03:00:38.646Z,924.99
2016-12-11T03:01:06.472Z,925
2016-12-11T03:01:34.321Z,924.94
2016-12-11T03:02:02.269Z,924.93
2016-12-11T03:02:30.095Z,924.96
2016-12-11T03:02:57.913Z,924.93
2016-12-11T03:03:25.755Z,924.9
2016-12-11T03:03:53.641Z,924.9
2016-12-11T03:04:21.453Z,924.9
2016-12-11T03:04:49.333Z,924.89
2016-12-11T03:05:17.217Z,924.84
2016-12-11T03:05:45.065Z,924.84
2016-12-11T03:06:12.904Z,924.83
2016-12-11T03:06:40.748Z,924.82
2016-12-11T03:07:08.531Z,924.82
2016-12-11T03:07:36.370Z,924.79
2016-12-11T03:08:04.293Z,924.79
2016-12-11T03:08:32.319Z,924.76
2016-12-11T03:09:00.122Z,924.79
2016-12-11T03:09:27.971Z,924.73
2016-12-11T03:09:55.822Z,924.76
2016-12-11T03:10:23.666Z,924.76
2016-12-11T03:10:51.473Z,924.72
2016-12-11T03:11:19.387Z,924.73
2016-12-11T03:11:47.455Z,924.76
2016-12-11T03:12:15.336Z,924.75
2016-12-11T03:12:43.172Z,924.74
2016-12-11T03:13:11.123Z,924.75
2016-12-11T03:13:38.983Z,924.73
2016-12-11T03:14:06.828Z,924.73
2016-12-11T03:14:34.658Z,924.73
2016-12-11T03:15:02.482Z,924.76
2016-12-11T03:15:30.534Z,924.74
2016-12-11T03:15:58.321Z,924.79
2016-12-11T03:16:26.132Z,924.78
2016-12-11T03:16:53.976Z,924.74
2016-12-11T03:17:21.853Z,924.74
2016-12-11T03:17:49.734Z,924.74
2016-12-11T03:18:17.563Z,924.75
2016-12-11T03:18:45.498Z,924.73
2016-12-11T03:19:13.339Z,924.73
2016-12-11T03:19:41.191Z,924.72
2016-12-11T03:20:09.064Z,924.69
2016-12-11T03:20:36.874Z,924.73
2016-12-11T03:21:04.708Z,924.72
2016-12-11T03:21:32.656Z,924.71
2016-12-11T03:22:00.503Z,924.76
2016-12-11T03:22:28.301Z,924.76
2016-12-11T03:22:56.170Z,924.75
2016-12-11T03:23:23.986Z,924.77
2016-12-11T03:23:51.847Z,924.77
2016-12-11T03:24:19.688Z,924.74
2016-12-11T03:24:47.578Z,924.73
2016-12-11T03:25:15.435Z,924.72
2016-12-11T03:25:43.237Z,924.68
2016-12-11T03:26:11.118Z,924.69
2016-12-11T03:26:38.943Z,924.68
2016-12-11T03:27:06.862Z,924.68
2016-12-11T03:27:34.694Z,924.65
2016-12-11T03:28:02.531Z,924.7
2016-12-11T03:28:30.400Z,924.71
2016-12-11T03:28:58.171Z,924.72
2016-12-11T03:29:26.015Z,924.71
2016-12-11T03:29:53.857Z,924.71
2016-12-11T03:30:21.707Z,924.68
2016-12-11T03:30:49.529Z,924.75
2016-12-11T03:31:17.372Z,924.72
2016-12-11T03:31:45.170Z,924.71
2016-12-11T03:32:13.016Z,924.72
2016-12-11T03:32:40.893Z,924.71
2016-12-11T03:33:08.741Z,924.72
2016-12-11T03:33:36.564Z,924.74
2016-12-11T03:34:04.415Z,924.7
2016-12-11T03:34:32.254Z,924.71
2016-12-11T03:35:00.130Z,924.71
2016-12-11T03:35:27.955Z,924.67
2016-12-11T03:35:55.809Z,924.67
2016-12-11T03:36:23.609Z,924.69
2016-12-11T03:36:51.460Z,924.66
2016-12-11T03:37:19.307Z,924.64
2016-12-11T03:37:47.181Z,924.65
2016-12-11T03:38:14.995Z,924.63
2016-12-11T03:38:42.852Z,924.63
2016-12-11T03:39:10.690Z,924.61
2016-12-11T03:39:38.542Z,924.6
2016-12-11T03:40:06.370Z,924.59
2016-12-11T03:40:34.244Z,924.62
2016-12-11T03:41:02.045Z,924.63
2016-12-11T03:41:29.847Z,924.59
2016-12-11T03:41:57.703Z,924.62
2016-12-11T03:42:25.500Z,924.65
2016-12-11T03:42:53.387Z,924.61
2016-12-11T03:43:21.260Z,924.63
2016-12-11T03:43:49.098Z,924.68
2016-12-11T03:44:16.936Z,924.62
2016-12-11T03:44:44.769Z,924.63
2016-12-11T03:45:12.691Z,924.66
2016-12-11T03:45:40.581Z,924.63
2016-12-11T03:46:08.418Z,924.64
2016-12-11T03:46:36.252Z,924.6
2016-12-11T03:47:04.189Z,924.6
2016-12-11T03:47:32.002Z,924.59
2016-12-11T03:47:59.838Z,924.55
2016-12-11T03:48:27.744Z,924.6
2016-12-11T03:48:55.585Z,924.6
2016-12-11T03:49:23.393Z,924.6
2016-12-11T03:49:51.325Z,924.61
2016-12-11T03:50:19.195Z,924.63
2016-12-11T03:50:47.056Z,924.65
2016-12-11T03:51:14.903Z,924.63
2016-12-11T03:51:42.741Z,924.66
2016-12-11T03:52:10.561Z,924.63
2016-12-11T03:52:38.407Z,924.66
2016-12-11T03:53:06.204Z,924.65
2016-12-11T03:53:34.049Z,924.68
2016-12-11T03:54:01.859Z,924.68
2016-12-11T03:54:29.679Z,924.69
2016-12-11T03:54:57.526Z,924.67
2016-12-11T03:55:25.363Z,924.68
2016-12-11T03:55:53.207Z,924.61
2016-12-11T03:56:21.028Z,924.62
2016-12-11T03:56:48.910Z,924.63
2016-12-11T03:57:16.697Z,924.66
2016-12-11T03:57:44.502Z,924.67
2016-12-11T03:58:12.357Z,924.66
2016-12-11T03:58:40.190Z,924.64
2016-12-11T03:59:07.991Z,924.65
2016-12-11T03:59:35.846Z,924.62
2016-12-11T04:00:03.649Z,924.63
2016-12-11T04:00:31.522Z,924.61
2016-12-11T04:00:59.414Z,924.58
2016-12-11T04:01:27.253Z,924.62
2016-12-11T04:01:55.141Z,924.58
2016-12-11T04:02:22.953Z,924.59
2016-12-11T04:02:50.833Z,924.57
2016-12-11T04:03:18.751Z,924.6
2016-12-11T04:03:46.619Z,924.59
2016-12-11T04:04:14.426Z,924.57
2016-12-11T04:04:42.446Z,924.57
2016-12-11T04:05:10.266Z,924.58
2016-12-11T04:05:38.171Z,924.53
2016-12-11T04:06:06.045Z,924.48
2016-12-11T04:06:33.885Z,924.52
2016-12-11T04:07:01.775Z,924.5
2016-12-11T04:07:29.687Z,924.51
2016-12-11T04:07:57.582Z,924.47
2016-12-11T04:08:25.403Z,924.47
2016-12-11T04:08:53.200Z,924.52
2016-12-11T04:09:20.999Z,924.46
2016-12-11T04:09:48.909Z,924.47
2016-12-11T04:10:16.753Z,924.44
2016-12-11T04:10:44.573Z,924.46
2016-12-11T04:11:12.423Z,924.43
2016-12-11T04:11:40.300Z,924.43
2016-12-11T04:12:08.221Z,924.44
2016-12-11T04:12:36.046Z,924.43
2016-12-11T04:13:03.908Z,924.39
2016-12-11T04:13:31.768Z,924.37
2016-12-11T04:13:59.679Z,924.35
2016-12-11T04:14:27.522Z,924.38
2016-12-11T04:14:55.308Z,924.37
2016-12-11T04:15:23.119Z,924.37
2016-12-11T04:15:50.996Z,924.38
2016-12-11T04:16:18.855Z,924.36
2016-12-11T04:16:46.699Z,924.37
2016-12-11T04:17:14.502Z,924.36
2016-12-11T04:17:42.310Z,924.33
2016-12-11T04:18:10.211Z,924.39
2016-12-11T04:18:38.027Z,924.39
2016-12-11T04:19:05.844Z,924.38
2016-12-11T04:19:33.807Z,924.38
2016-12-11T04:20:01.662Z,924.36
2016-12-11T04:20:29.543Z,924.37
2016-12-11T04:20:57.380Z,924.39
2016-12-11T04:21:25.217Z,924.34
2016-12-11T04:21:53.045Z,924.34
2016-12-11T04:22:20.930Z,924.37
2016-12-11T04:22:48.733Z,924.36
2016-12-11T04:23:16.573Z,924.33
2016-12-11T04:23:44.403Z,924.37
2016-12-11T04:24:12.262Z,924.35
2016-12-11T04:24:40.173Z,924.37
2016-12-11T04:25:08.015Z,924.32
2016-12-11T04:25:35.898Z,924.35
2016-12-11T04:26:03.725Z,924.41
2016-12-11T04:26:31.602Z,924.37
2016-12-11T04:26:59.438Z,924.39
2016-12-11T04:27:27.317Z,924.38
2016-12-11T04:27:55.185Z,924.37
2016-12-11T04:28:23.049Z,924.39
2016-12-11T04:28:50.919Z,924.38
2016-12-11T04:29:18.772Z,924.37
2016-12-11T04:29:46.588Z,924.37
2016-12-11T04:30:14.403Z,924.38
2016-12-11T04:30:42.255Z,924.37
2016-12-11T04:31:10.102Z,924.41
2016-12-11T04:31:37.935Z,924.34
2016-12-11T04:32:05.752Z,924.35
2016-12-11T04:32:33.618Z,924.33
2016-12-11T04:33:01.445Z,924.3
2016-12-11T04:33:29.324Z,924.32
2016-12-11T04:33:57.188Z,924.34
2016-12-11T04:34:25.025Z,924.36
2016-12-11T04:34:52.878Z,924.34
2016-12-11T04:35:20.818Z,924.34
2016-12-11T04:35:48.632Z,924.37
2016-12-11T04:36:16.458Z,924.36
2016-12-11T04:36:44.267Z,924.34
2016-12-11T04:37:12.143Z,924.35
2016-12-11T04:37:39.911Z,924.36
2016-12-11T04:38:07.810Z,924.35
2016-12-11T04:38:35.622Z,924.36
2016-12-11T04:39:03.488Z,924.33
2016-12-11T04:39:31.385Z,924.35
2016-12-11T04:39:59.217Z,924.31
2016-12-11T04:40:27.067Z,924.34
2016-12-11T04:40:54.924Z,924.28
2016-12-11T04:41:22.854Z,924.27
2016-12-11T04:41:50.701Z,924.27
2016-12-11T04:42:18.555Z,924.3
2016-12-11T04:42:46.446Z,924.25
2016-12-11T04:43:14.307Z,924.23
2016-12-11T04:43:42.141Z,924.21
2016-12-11T04:44:10.031Z,924.22
2016-12-11T04:44:37.862Z,924.23
2016-12-11T04:45:05.802Z,924.16
2016-12-11T04:45:33.721Z,924.18
2016-12-11T04:46:01.566Z,924.18
2016-12-11T04:46:29.439Z,924.19
2016-12-11T04:46:57.269Z,924.18
2016-12-11T04:47:25.277Z,924.24
2016-12-11T04:47:53.112Z,924.21
2016-12-11T04:48:21.057Z,924.24
2016-12-11T04:48:48.903Z,924.2
2016-12-11T04:49:16.738Z,924.19
2016-12-11T04:49:44.540Z,924.2
2016-12-11T04:50:12.419Z,924.16
2016-12-11T04:50:40.273Z,924.17
2016-12-11T04:51:08.106Z,924.16
2016-12-11T04:51:35.964Z,924.13
2016-12-11T04:52:03.860Z,924.15
2016-12-11T04:52:31.714Z,924.14
2016-12-11T04:52:59.559Z,924.09
2016-12-11T04:53:27.399Z,924.04
2016-12-11T04:53:55.263Z,924.03
2016-12-11T04:54:23.093Z,924.05
2016-12-11T04:54:50.946Z,924.05
2016-12-11T04:55:18.756Z,924.02
2016-12-11T04:55:46.613Z,924.03
2016-12-11T04:56:14.470Z,924.08
2016-12-11T04:56:42.289Z,924.06
2016-12-11T04:57:10.082Z,924.07
2016-12-11T04:57:37.905Z,924.09
2016-12-11T04:58:05.766Z,924.12
2016-12-11T04:58:33.621Z,924.1
2016-12-11T04:59:01.483Z,924.12
2016-12-11T04:59:29.297Z,924.1
2016-12-11T04:59:57.105Z,924.05
2016-12-11T05:00:24.933Z,924
2016-12-11T05:00:52.774Z,924.01
2016-12-11T05:01:20.621Z,924.01
2016-12-11T05:01:48.465Z,924.04
2016-12-11T05:02:16.330Z,924.02
2016-12-11T05:02:44.186Z,924.01
2016-12-11T05:03:12.056Z,923.96
2016-12-11T05:03:39.908Z,923.93
2016-12-11T05:04:07.771Z,923.9
2016-12-11T05:04:35.625Z,923.86
2016-12-11T05:05:03.490Z,923.9
2016-12-11T05:05:31.315Z,923.88
2016-12-11T05:05:59.186Z,923.88
2016-12-11T05:06:27.041Z,923.87
2016-12-11T05:06:54.855Z,923.9
2016-12-11T05:07:22.711Z,923.88
2016-12-11T05:07:50.528Z,923.84
2016-12-11T05:08:18.363Z,923.86
2016-12-11T05:08:46.226Z,923.95
2016-12-11T05:09:14.084Z,923.94
2016-12-11T05:09:41.970Z,923.94
2016-12-11T05:10:09.747Z,923.95
2016-12-11T05:10:37.622Z,923.98
2016-12-11T05:11:05.459Z,924.03
2016-12-11T05:11:33.297Z,924.03
2016-12-11T05:12:01.168Z,924.01
2016-12-11T05:12:29.019Z,924
2016-12-11T05:12:56.893Z,924.02
2016-12-11T05:13:24.879Z,924
2016-12-11T05:13:52.741Z,924.08
2016-12-11T05:14:20.546Z,923.99
2016-12-11T05:14:48.507Z,924.05
2016-12-11T05:15:16.314Z,924.09
2016-12-11T05:15:44.142Z,924.04
2016-12-11T05:16:12.060Z,924.08
2016-12-11T05:16:39.863Z,924.1
2016-12-11T05:17:07.736Z,924.04
2016-12-11T05:17:35.581Z,924.05
2016-12-11T05:18:03.376Z,924.07
2016-12-11T05:18:31.238Z,924.01
2016-12-11T05:18:59.083Z,924.08
2016-12-11T05:19:26.924Z,924.02
2016-12-11T05:19:54.893Z,924.08
2016-12-11T05:20:22.720Z,924.07
2016-12-11T05:20:50.540Z,924.03
2016-12-11T05:21:18.398Z,924.05
2016-12-11T05:21:46.219Z,924.02
2016-12-11T05:22:14.089Z,924.04
2016-12-11T05:22:41.892Z,924.04
2016-12-11T05:23:09.836Z,924.1
2016-12-11T05:23:37.718Z,924.1
2016-12-11T05:24:05.556Z,924.06
2016-12-11T05:24:33.424Z,924.03
2016-12-11T05:25:01.276Z,924.01
2016-12-11T05:25:29.111Z,924.05
2016-12-11T05:25:56.964Z,924.02
2016-12-11T05:26:24.799Z,924
2016-12-11T05:26:52.652Z,924.05
2016-12-11T05:27:20.487Z,924.01
2016-12-11T05:27:48.350Z,923.98
2016-12-11T05:28:16.172Z,923.97
2016-12-11T05:28:44.008Z,923.99
2016-12-11T05:29:11.857Z,924.02
2016-12-11T05:29:39.695Z,923.99
2016-12-11T05:30:07.555Z,924.03
2016-12-11T05:30:35.475Z,923.96
2016-12-11T05:31:03.371Z,923.97
2016-12-11T05:31:31.219Z,923.94
2016-12-11T05:31:58.992Z,923.94
2016-12-11T05:32:26.802Z,923.95
2016-12-11T05:32:54.608Z,923.93
2016-12-11T05:33:22.430Z,923.94
2016-12-11T05:33:50.290Z,923.92
2016-12-11T05:34:18.188Z,923.92
2016-12-11T05:34:46.052Z,923.92
2016-12-11T05:35:13.881Z,923.91
2016-12-11T05:35:41.723Z,923.88
2016-12-11T05:36:09.543Z,923.87
2016-12-11T05:36:37.363Z,923.85
2016-12-11T05:37:05.237Z,923.84
2016-12-11T05:37:33.079Z,923.83
2016-12-11T05:38:00.882Z,923.84
2016-12-11T05:38:28.798Z,923.82
2016-12-11T05:38:56.637Z,923.82
2016-12-11T05:39:24.504Z,923.84
2016-12-11T05:39:52.350Z,923.82
2016-12-11T05:40:20.229Z,923.8
2016-12-11T05:40:48.090Z,923.82
2016-12-11T05:41:16.040Z,923.8
2016-12-11T05:41:43.882Z,923.8
2016-12-11T05:42:11.711Z,923.83
2016-12-11T05:42:39.558Z,923.8
2016-12-11T05:43:07.441Z,923.8
2016-12-11T05:43:35.350Z,923.77
2016-12-11T05:44:03.186Z,923.75
2016-12-11T05:44:31.096Z,923.78
2016-12-11T05:44:58.945Z,923.74
2016-12-11T05:45:26.799Z,923.74
2016-12-11T05:45:54.677Z,923.75
2016-12-11T05:46:22.536Z,923.78
2016-12-11T05:46:50.359Z,923.79
2016-12-11T05:47:18.196Z,923.76
2016-12-11T05:47:46.086Z,923.73
2016-12-11T05:48:13.901Z,923.74
2016-12-11T05:48:41.725Z,923.76
2016-12-11T05:49:09.520Z,923.74